sensor_id;sensor_type;location;lat;lon;timestamp;P1;durP1;ratioP1;P2;durP2;ratioP2
38603;SDS011;24924;50.054;8.790;2023-07-08T00:02:24;6.80;;;2.97;;
38603;SDS011;24924;50.054;8.790;2023-07-08T00:04:50;6.93;;;3.33;;
38603;SDS011;24924;50.054;8.790;2023-07-08T00:07:16;6.05;;;3.17;;
38603;SDS011;24924;50.054;8.790;2023-07-08T00:09:45;6.13;;;3.45;;
38603;SDS011;24924;50.054;8.790;2023-07-08T00:12:11;6.70;;;3.60;;
38603;SDS011;24924;50.054;8.790;2023-07-08T00:14:38;7.53;;;3.88;;
38603;SDS011;24924;50.054;8.790;2023-07-08T00:17:08;6.70;;;3.60;;
38603;SDS011;24924;50.054;8.790;2023-07-08T00:19:37;6.97;;;3.70;;
38603;SDS011;24924;50.054;8.790;2023-07-08T00:22:07;6.73;;;3.37;;
38603;SDS011;24924;50.054;8.790;2023-07-08T00:24:39;6.03;;;3.50;;
38603;SDS011;24924;50.054;8.790;2023-07-08T00:27:07;8.45;;;3.50;;
38603;SDS011;24924;50.054;8.790;2023-07-08T00:29:35;6.40;;;3.53;;
38603;SDS011;24924;50.054;8.790;2023-07-08T00:32:04;6.18;;;3.58;;
38603;SDS011;24924;50.054;8.790;2023-07-08T00:34:34;6.50;;;3.00;;
38603;SDS011;24924;50.054;8.790;2023-07-08T00:37:01;7.87;;;3.20;;
38603;SDS011;24924;50.054;8.790;2023-07-08T00:39:30;6.47;;;3.75;;
38603;SDS011;24924;50.054;8.790;2023-07-08T00:41:58;6.07;;;3.25;;
38603;SDS011;24924;50.054;8.790;2023-07-08T00:44:26;9.98;;;4.10;;
38603;SDS011;24924;50.054;8.790;2023-07-08T00:46:57;7.03;;;3.22;;
38603;SDS011;24924;50.054;8.790;2023-07-08T00:49:53;7.33;;;3.23;;
38603;SDS011;24924;50.054;8.790;2023-07-08T00:52:24;6.65;;;3.50;;
38603;SDS011;24924;50.054;8.790;2023-07-08T00:54:53;7.35;;;2.92;;
38603;SDS011;24924;50.054;8.790;2023-07-08T00:57:22;7.00;;;3.47;;
38603;SDS011;24924;50.054;8.790;2023-07-08T01:02:20;6.43;;;2.83;;
38603;SDS011;24924;50.054;8.790;2023-07-08T01:04:50;4.55;;;2.45;;
38603;SDS011;24924;50.054;8.790;2023-07-08T01:07:26;5.28;;;2.97;;
38603;SDS011;24924;50.054;8.790;2023-07-08T01:09:59;4.97;;;2.83;;
38603;SDS011;24924;50.054;8.790;2023-07-08T01:12:36;9.13;;;3.53;;
38603;SDS011;24924;50.054;8.790;2023-07-08T01:15:05;5.20;;;3.00;;
38603;SDS011;24924;50.054;8.790;2023-07-08T01:17:33;6.25;;;3.30;;
38603;SDS011;24924;50.054;8.790;2023-07-08T01:20:00;8.23;;;3.10;;
38603;SDS011;24924;50.054;8.790;2023-07-08T01:22:31;7.13;;;3.50;;
38603;SDS011;24924;50.054;8.790;2023-07-08T01:25:00;5.63;;;3.15;;
38603;SDS011;24924;50.054;8.790;2023-07-08T01:27:30;7.37;;;2.90;;
38603;SDS011;24924;50.054;8.790;2023-07-08T01:30:00;6.25;;;3.05;;
38603;SDS011;24924;50.054;8.790;2023-07-08T01:32:28;7.10;;;3.10;;
38603;SDS011;24924;50.054;8.790;2023-07-08T01:34:58;5.47;;;2.85;;
38603;SDS011;24924;50.054;8.790;2023-07-08T01:37:34;7.18;;;2.97;;
38603;SDS011;24924;50.054;8.790;2023-07-08T01:40:23;5.70;;;3.07;;
38603;SDS011;24924;50.054;8.790;2023-07-08T01:43:01;5.07;;;2.80;;
38603;SDS011;24924;50.054;8.790;2023-07-08T01:45:28;5.00;;;3.03;;
38603;SDS011;24924;50.054;8.790;2023-07-08T01:47:58;8.63;;;2.90;;
38603;SDS011;24924;50.054;8.790;2023-07-08T01:50:27;6.30;;;3.45;;
38603;SDS011;24924;50.054;8.790;2023-07-08T01:52:55;5.93;;;2.90;;
38603;SDS011;24924;50.054;8.790;2023-07-08T01:55:23;5.10;;;3.30;;
38603;SDS011;24924;50.054;8.790;2023-07-08T01:57:51;4.95;;;2.78;;
38603;SDS011;24924;50.054;8.790;2023-07-08T02:00:19;7.40;;;4.05;;
38603;SDS011;24924;50.054;8.790;2023-07-08T02:02:45;8.65;;;3.10;;
38603;SDS011;24924;50.054;8.790;2023-07-08T02:05:12;6.47;;;3.53;;
38603;SDS011;24924;50.054;8.790;2023-07-08T02:07:39;6.38;;;3.17;;
38603;SDS011;24924;50.054;8.790;2023-07-08T02:10:05;7.68;;;2.85;;
38603;SDS011;24924;50.054;8.790;2023-07-08T02:12:32;4.75;;;2.85;;
38603;SDS011;24924;50.054;8.790;2023-07-08T02:15:01;4.60;;;2.35;;
38603;SDS011;24924;50.054;8.790;2023-07-08T02:17:28;4.63;;;2.73;;
38603;SDS011;24924;50.054;8.790;2023-07-08T02:19:57;6.07;;;3.35;;
38603;SDS011;24924;50.054;8.790;2023-07-08T02:22:23;6.25;;;2.60;;
38603;SDS011;24924;50.054;8.790;2023-07-08T02:24:50;5.43;;;3.15;;
38603;SDS011;24924;50.054;8.790;2023-07-08T02:27:15;5.47;;;3.27;;
38603;SDS011;24924;50.054;8.790;2023-07-08T02:29:42;5.45;;;3.25;;
38603;SDS011;24924;50.054;8.790;2023-07-08T02:32:08;6.25;;;3.25;;
38603;SDS011;24924;50.054;8.790;2023-07-08T02:34:39;5.18;;;2.83;;
38603;SDS011;24924;50.054;8.790;2023-07-08T02:37:06;5.95;;;2.72;;
38603;SDS011;24924;50.054;8.790;2023-07-08T02:39:32;6.77;;;3.47;;
38603;SDS011;24924;50.054;8.790;2023-07-08T02:41:58;5.68;;;3.35;;
38603;SDS011;24924;50.054;8.790;2023-07-08T02:44:24;6.00;;;3.15;;
38603;SDS011;24924;50.054;8.790;2023-07-08T02:46:51;7.17;;;3.50;;
38603;SDS011;24924;50.054;8.790;2023-07-08T02:49:18;5.32;;;3.30;;
38603;SDS011;24924;50.054;8.790;2023-07-08T02:51:44;5.05;;;2.33;;
38603;SDS011;24924;50.054;8.790;2023-07-08T02:54:10;4.75;;;2.45;;
38603;SDS011;24924;50.054;8.790;2023-07-08T02:56:36;4.43;;;2.43;;
38603;SDS011;24924;50.054;8.790;2023-07-08T02:59:02;6.40;;;3.17;;
38603;SDS011;24924;50.054;8.790;2023-07-08T03:01:28;5.47;;;2.70;;
38603;SDS011;24924;50.054;8.790;2023-07-08T03:03:56;5.60;;;2.95;;
38603;SDS011;24924;50.054;8.790;2023-07-08T03:06:22;5.10;;;3.00;;
38603;SDS011;24924;50.054;8.790;2023-07-08T03:08:48;7.80;;;3.28;;
38603;SDS011;24924;50.054;8.790;2023-07-08T03:11:15;6.45;;;3.17;;
38603;SDS011;24924;50.054;8.790;2023-07-08T03:13:41;3.83;;;2.40;;
38603;SDS011;24924;50.054;8.790;2023-07-08T03:16:07;5.80;;;2.67;;
38603;SDS011;24924;50.054;8.790;2023-07-08T03:18:38;4.60;;;2.40;;
38603;SDS011;24924;50.054;8.790;2023-07-08T03:21:13;5.13;;;2.40;;
38603;SDS011;24924;50.054;8.790;2023-07-08T03:23:42;5.40;;;2.60;;
38603;SDS011;24924;50.054;8.790;2023-07-08T03:26:14;4.20;;;2.42;;
38603;SDS011;24924;50.054;8.790;2023-07-08T03:28:44;5.73;;;2.70;;
38603;SDS011;24924;50.054;8.790;2023-07-08T03:31:10;5.07;;;2.95;;
38603;SDS011;24924;50.054;8.790;2023-07-08T03:33:37;4.75;;;2.45;;
38603;SDS011;24924;50.054;8.790;2023-07-08T03:36:04;4.60;;;2.42;;
38603;SDS011;24924;50.054;8.790;2023-07-08T03:38:35;5.65;;;2.58;;
38603;SDS011;24924;50.054;8.790;2023-07-08T03:41:01;6.23;;;2.57;;
38603;SDS011;24924;50.054;8.790;2023-07-08T03:43:27;5.15;;;2.67;;
38603;SDS011;24924;50.054;8.790;2023-07-08T03:45:53;6.03;;;2.97;;
38603;SDS011;24924;50.054;8.790;2023-07-08T03:48:19;6.40;;;2.83;;
38603;SDS011;24924;50.054;8.790;2023-07-08T03:50:44;6.20;;;3.22;;
38603;SDS011;24924;50.054;8.790;2023-07-08T03:53:10;5.07;;;2.83;;
38603;SDS011;24924;50.054;8.790;2023-07-08T03:55:36;4.47;;;2.43;;
38603;SDS011;24924;50.054;8.790;2023-07-08T03:58:04;4.40;;;2.70;;
38603;SDS011;24924;50.054;8.790;2023-07-08T04:00:32;5.13;;;3.10;;
38603;SDS011;24924;50.054;8.790;2023-07-08T04:03:00;4.60;;;2.33;;
38603;SDS011;24924;50.054;8.790;2023-07-08T04:05:26;3.85;;;2.25;;
38603;SDS011;24924;50.054;8.790;2023-07-08T04:07:52;4.83;;;2.60;;
38603;SDS011;24924;50.054;8.790;2023-07-08T04:10:18;4.57;;;2.75;;
38603;SDS011;24924;50.054;8.790;2023-07-08T04:12:45;5.03;;;2.70;;
38603;SDS011;24924;50.054;8.790;2023-07-08T04:15:11;4.53;;;2.78;;
38603;SDS011;24924;50.054;8.790;2023-07-08T04:17:39;4.35;;;2.25;;
38603;SDS011;24924;50.054;8.790;2023-07-08T04:20:10;4.33;;;2.50;;
38603;SDS011;24924;50.054;8.790;2023-07-08T04:22:39;6.03;;;2.90;;
38603;SDS011;24924;50.054;8.790;2023-07-08T04:25:05;5.50;;;3.30;;
38603;SDS011;24924;50.054;8.790;2023-07-08T04:27:32;5.82;;;2.40;;
38603;SDS011;24924;50.054;8.790;2023-07-08T04:29:58;5.00;;;3.42;;
38603;SDS011;24924;50.054;8.790;2023-07-08T04:32:24;5.40;;;2.57;;
38603;SDS011;24924;50.054;8.790;2023-07-08T04:34:50;5.40;;;2.63;;
38603;SDS011;24924;50.054;8.790;2023-07-08T04:37:16;7.30;;;3.15;;
38603;SDS011;24924;50.054;8.790;2023-07-08T04:39:42;4.77;;;2.60;;
38603;SDS011;24924;50.054;8.790;2023-07-08T04:42:08;5.68;;;2.78;;
38603;SDS011;24924;50.054;8.790;2023-07-08T04:44:35;5.18;;;2.25;;
38603;SDS011;24924;50.054;8.790;2023-07-08T04:47:01;5.70;;;2.92;;
38603;SDS011;24924;50.054;8.790;2023-07-08T04:49:27;5.37;;;2.73;;
38603;SDS011;24924;50.054;8.790;2023-07-08T04:51:59;6.07;;;2.30;;
38603;SDS011;24924;50.054;8.790;2023-07-08T04:54:25;4.57;;;2.40;;
38603;SDS011;24924;50.054;8.790;2023-07-08T04:56:51;6.25;;;2.90;;
38603;SDS011;24924;50.054;8.790;2023-07-08T04:59:21;4.32;;;2.40;;
38603;SDS011;24924;50.054;8.790;2023-07-08T05:01:48;4.80;;;2.63;;
38603;SDS011;24924;50.054;8.790;2023-07-08T05:04:15;3.88;;;2.15;;
38603;SDS011;24924;50.054;8.790;2023-07-08T05:06:43;5.53;;;2.95;;
38603;SDS011;24924;50.054;8.790;2023-07-08T05:09:09;4.65;;;2.50;;
38603;SDS011;24924;50.054;8.790;2023-07-08T05:11:36;4.47;;;2.58;;
38603;SDS011;24924;50.054;8.790;2023-07-08T05:14:02;5.00;;;2.10;;
38603;SDS011;24924;50.054;8.790;2023-07-08T05:16:29;4.40;;;2.47;;
38603;SDS011;24924;50.054;8.790;2023-07-08T05:18:55;5.00;;;2.20;;
38603;SDS011;24924;50.054;8.790;2023-07-08T05:21:21;5.03;;;2.40;;
38603;SDS011;24924;50.054;8.790;2023-07-08T05:23:47;4.63;;;2.00;;
38603;SDS011;24924;50.054;8.790;2023-07-08T05:26:16;4.83;;;2.30;;
38603;SDS011;24924;50.054;8.790;2023-07-08T05:28:42;3.80;;;1.92;;
38603;SDS011;24924;50.054;8.790;2023-07-08T05:31:08;4.78;;;2.45;;
38603;SDS011;24924;50.054;8.790;2023-07-08T05:33:35;4.80;;;2.13;;
38603;SDS011;24924;50.054;8.790;2023-07-08T05:36:01;5.90;;;2.40;;
38603;SDS011;24924;50.054;8.790;2023-07-08T05:38:27;4.80;;;2.15;;
38603;SDS011;24924;50.054;8.790;2023-07-08T05:40:54;7.15;;;1.88;;
38603;SDS011;24924;50.054;8.790;2023-07-08T05:43:21;5.72;;;2.45;;
38603;SDS011;24924;50.054;8.790;2023-07-08T05:45:48;5.43;;;2.40;;
38603;SDS011;24924;50.054;8.790;2023-07-08T05:48:14;5.07;;;2.40;;
38603;SDS011;24924;50.054;8.790;2023-07-08T05:50:39;3.90;;;1.83;;
38603;SDS011;24924;50.054;8.790;2023-07-08T05:53:09;4.72;;;2.28;;
38603;SDS011;24924;50.054;8.790;2023-07-08T05:55:35;5.65;;;2.75;;
38603;SDS011;24924;50.054;8.790;2023-07-08T05:58:01;5.43;;;2.55;;
38603;SDS011;24924;50.054;8.790;2023-07-08T06:00:28;6.33;;;2.27;;
38603;SDS011;24924;50.054;8.790;2023-07-08T06:02:54;4.88;;;2.50;;
38603;SDS011;24924;50.054;8.790;2023-07-08T06:05:20;5.72;;;2.50;;
38603;SDS011;24924;50.054;8.790;2023-07-08T06:07:46;6.65;;;2.55;;
38603;SDS011;24924;50.054;8.790;2023-07-08T06:10:12;3.90;;;2.20;;
38603;SDS011;24924;50.054;8.790;2023-07-08T06:12:38;4.43;;;2.10;;
38603;SDS011;24924;50.054;8.790;2023-07-08T06:15:04;4.72;;;2.20;;
38603;SDS011;24924;50.054;8.790;2023-07-08T06:17:30;5.03;;;2.55;;
38603;SDS011;24924;50.054;8.790;2023-07-08T06:19:56;4.57;;;2.57;;
38603;SDS011;24924;50.054;8.790;2023-07-08T06:22:23;4.95;;;2.45;;
38603;SDS011;24924;50.054;8.790;2023-07-08T06:24:48;4.70;;;2.42;;
38603;SDS011;24924;50.054;8.790;2023-07-08T06:27:14;8.68;;;2.33;;
38603;SDS011;24924;50.054;8.790;2023-07-08T06:29:41;4.47;;;2.20;;
38603;SDS011;24924;50.054;8.790;2023-07-08T06:32:07;4.72;;;2.63;;
38603;SDS011;24924;50.054;8.790;2023-07-08T06:34:33;4.50;;;2.30;;
38603;SDS011;24924;50.054;8.790;2023-07-08T06:36:59;4.70;;;2.20;;
38603;SDS011;24924;50.054;8.790;2023-07-08T06:39:25;4.97;;;2.53;;
38603;SDS011;24924;50.054;8.790;2023-07-08T06:41:51;5.25;;;2.70;;
38603;SDS011;24924;50.054;8.790;2023-07-08T06:44:22;4.63;;;2.13;;
38603;SDS011;24924;50.054;8.790;2023-07-08T06:46:48;7.07;;;2.43;;
38603;SDS011;24924;50.054;8.790;2023-07-08T06:50:23;5.07;;;2.42;;
38603;SDS011;24924;50.054;8.790;2023-07-08T06:52:49;5.18;;;2.30;;
38603;SDS011;24924;50.054;8.790;2023-07-08T06:55:14;8.50;;;2.60;;
38603;SDS011;24924;50.054;8.790;2023-07-08T06:57:41;4.07;;;1.90;;
38603;SDS011;24924;50.054;8.790;2023-07-08T07:00:08;5.45;;;2.72;;
38603;SDS011;24924;50.054;8.790;2023-07-08T07:02:35;5.47;;;2.38;;
38603;SDS011;24924;50.054;8.790;2023-07-08T07:07:06;5.33;;;2.77;;
38603;SDS011;24924;50.054;8.790;2023-07-08T07:09:33;7.38;;;2.58;;
38603;SDS011;24924;50.054;8.790;2023-07-08T07:11:59;5.72;;;3.00;;
38603;SDS011;24924;50.054;8.790;2023-07-08T07:14:25;5.30;;;2.67;;
38603;SDS011;24924;50.054;8.790;2023-07-08T07:16:52;7.63;;;2.15;;
38603;SDS011;24924;50.054;8.790;2023-07-08T07:19:18;4.63;;;2.47;;
38603;SDS011;24924;50.054;8.790;2023-07-08T07:21:46;4.95;;;3.03;;
38603;SDS011;24924;50.054;8.790;2023-07-08T07:24:12;7.78;;;3.15;;
38603;SDS011;24924;50.054;8.790;2023-07-08T07:26:39;4.70;;;2.25;;
38603;SDS011;24924;50.054;8.790;2023-07-08T07:29:05;4.68;;;2.10;;
38603;SDS011;24924;50.054;8.790;2023-07-08T07:31:31;5.23;;;2.93;;
38603;SDS011;24924;50.054;8.790;2023-07-08T07:34:00;6.45;;;2.72;;
38603;SDS011;24924;50.054;8.790;2023-07-08T07:36:27;4.95;;;2.30;;
38603;SDS011;24924;50.054;8.790;2023-07-08T07:38:54;5.20;;;2.53;;
38603;SDS011;24924;50.054;8.790;2023-07-08T07:41:20;7.80;;;3.15;;
38603;SDS011;24924;50.054;8.790;2023-07-08T07:43:47;4.30;;;2.27;;
38603;SDS011;24924;50.054;8.790;2023-07-08T07:46:13;5.90;;;2.75;;
38603;SDS011;24924;50.054;8.790;2023-07-08T07:48:39;4.97;;;2.35;;
38603;SDS011;24924;50.054;8.790;2023-07-08T07:51:05;6.22;;;2.80;;
38603;SDS011;24924;50.054;8.790;2023-07-08T07:53:33;5.18;;;2.30;;
38603;SDS011;24924;50.054;8.790;2023-07-08T07:55:59;5.60;;;2.70;;
38603;SDS011;24924;50.054;8.790;2023-07-08T07:58:26;7.47;;;2.22;;
38603;SDS011;24924;50.054;8.790;2023-07-08T08:00:52;5.03;;;2.33;;
38603;SDS011;24924;50.054;8.790;2023-07-08T08:03:19;6.18;;;2.83;;
38603;SDS011;24924;50.054;8.790;2023-07-08T08:05:46;5.45;;;2.45;;
38603;SDS011;24924;50.054;8.790;2023-07-08T08:08:12;4.88;;;2.60;;
38603;SDS011;24924;50.054;8.790;2023-07-08T08:10:38;5.72;;;2.40;;
38603;SDS011;24924;50.054;8.790;2023-07-08T08:13:04;5.87;;;2.50;;
38603;SDS011;24924;50.054;8.790;2023-07-08T08:15:30;7.43;;;2.40;;
38603;SDS011;24924;50.054;8.790;2023-07-08T08:17:56;4.78;;;2.10;;
38603;SDS011;24924;50.054;8.790;2023-07-08T08:20:25;6.10;;;2.78;;
38603;SDS011;24924;50.054;8.790;2023-07-08T08:22:50;10.90;;;2.73;;
38603;SDS011;24924;50.054;8.790;2023-07-08T08:25:17;4.20;;;2.40;;
38603;SDS011;24924;50.054;8.790;2023-07-08T08:27:44;4.18;;;2.20;;
38603;SDS011;24924;50.054;8.790;2023-07-08T08:30:11;5.07;;;2.30;;
38603;SDS011;24924;50.054;8.790;2023-07-08T08:32:37;4.22;;;2.13;;
38603;SDS011;24924;50.054;8.790;2023-07-08T08:35:03;4.47;;;2.30;;
38603;SDS011;24924;50.054;8.790;2023-07-08T08:37:29;4.53;;;2.10;;
38603;SDS011;24924;50.054;8.790;2023-07-08T08:39:56;4.32;;;2.20;;
38603;SDS011;24924;50.054;8.790;2023-07-08T08:42:25;5.43;;;2.40;;
38603;SDS011;24924;50.054;8.790;2023-07-08T08:44:58;5.03;;;2.22;;
38603;SDS011;24924;50.054;8.790;2023-07-08T08:47:30;4.47;;;2.40;;
38603;SDS011;24924;50.054;8.790;2023-07-08T08:50:02;4.95;;;2.20;;
38603;SDS011;24924;50.054;8.790;2023-07-08T08:52:30;5.00;;;2.35;;
38603;SDS011;24924;50.054;8.790;2023-07-08T08:54:56;5.70;;;2.40;;
38603;SDS011;24924;50.054;8.790;2023-07-08T08:57:27;4.80;;;2.15;;
38603;SDS011;24924;50.054;8.790;2023-07-08T09:00:00;4.40;;;2.07;;
38603;SDS011;24924;50.054;8.790;2023-07-08T09:02:32;6.88;;;2.30;;
38603;SDS011;24924;50.054;8.790;2023-07-08T09:05:14;5.93;;;2.47;;
38603;SDS011;24924;50.054;8.790;2023-07-08T09:07:49;4.43;;;2.13;;
38603;SDS011;24924;50.054;8.790;2023-07-08T09:10:44;6.63;;;2.40;;
38603;SDS011;24924;50.054;8.790;2023-07-08T09:13:24;3.93;;;1.93;;
38603;SDS011;24924;50.054;8.790;2023-07-08T09:15:57;4.95;;;2.33;;
38603;SDS011;24924;50.054;8.790;2023-07-08T09:18:32;4.55;;;2.08;;
38603;SDS011;24924;50.054;8.790;2023-07-08T09:21:06;5.47;;;2.40;;
38603;SDS011;24924;50.054;8.790;2023-07-08T09:23:42;5.57;;;2.53;;
38603;SDS011;24924;50.054;8.790;2023-07-08T09:26:13;4.63;;;2.23;;
38603;SDS011;24924;50.054;8.790;2023-07-08T09:28:44;5.22;;;2.70;;
38603;SDS011;24924;50.054;8.790;2023-07-08T09:31:18;4.15;;;1.85;;
38603;SDS011;24924;50.054;8.790;2023-07-08T09:33:50;7.07;;;2.22;;
38603;SDS011;24924;50.054;8.790;2023-07-08T09:36:18;3.95;;;1.83;;
38603;SDS011;24924;50.054;8.790;2023-07-08T09:38:48;4.93;;;2.53;;
38603;SDS011;24924;50.054;8.790;2023-07-08T09:41:25;6.57;;;2.53;;
38603;SDS011;24924;50.054;8.790;2023-07-08T09:44:02;5.75;;;2.45;;
38603;SDS011;24924;50.054;8.790;2023-07-08T09:46:37;5.97;;;2.58;;
38603;SDS011;24924;50.054;8.790;2023-07-08T09:49:15;4.93;;;2.20;;
38603;SDS011;24924;50.054;8.790;2023-07-08T09:51:45;6.17;;;2.50;;
38603;SDS011;24924;50.054;8.790;2023-07-08T09:54:11;5.28;;;1.92;;
38603;SDS011;24924;50.054;8.790;2023-07-08T09:56:44;6.13;;;2.47;;
38603;SDS011;24924;50.054;8.790;2023-07-08T09:59:23;4.97;;;2.20;;
38603;SDS011;24924;50.054;8.790;2023-07-08T10:01:54;5.20;;;2.17;;
38603;SDS011;24924;50.054;8.790;2023-07-08T10:04:20;5.63;;;2.00;;
38603;SDS011;24924;50.054;8.790;2023-07-08T10:06:47;6.35;;;2.42;;
38603;SDS011;24924;50.054;8.790;2023-07-08T10:09:18;5.55;;;2.60;;
38603;SDS011;24924;50.054;8.790;2023-07-08T10:11:47;5.82;;;2.38;;
38603;SDS011;24924;50.054;8.790;2023-07-08T10:14:24;5.10;;;1.90;;
38603;SDS011;24924;50.054;8.790;2023-07-08T10:16:51;4.40;;;2.07;;
38603;SDS011;24924;50.054;8.790;2023-07-08T10:19:18;6.70;;;2.08;;
38603;SDS011;24924;50.054;8.790;2023-07-08T10:27:28;7.55;;;2.67;;
38603;SDS011;24924;50.054;8.790;2023-07-08T10:30:22;7.93;;;2.27;;
38603;SDS011;24924;50.054;8.790;2023-07-08T10:35:33;4.22;;;2.30;;
38603;SDS011;24924;50.054;8.790;2023-07-08T10:40:50;5.75;;;2.28;;
38603;SDS011;24924;50.054;8.790;2023-07-08T10:43:44;5.23;;;2.57;;
38603;SDS011;24924;50.054;8.790;2023-07-08T11:07:00;5.53;;;2.20;;
38603;SDS011;24924;50.054;8.790;2023-07-08T11:09:30;5.17;;;1.90;;
38603;SDS011;24924;50.054;8.790;2023-07-08T11:12:00;4.30;;;1.80;;
38603;SDS011;24924;50.054;8.790;2023-07-08T11:14:46;8.30;;;2.63;;
38603;SDS011;24924;50.054;8.790;2023-07-08T11:20:01;6.95;;;2.17;;
38603;SDS011;24924;50.054;8.790;2023-07-08T11:22:36;7.50;;;2.10;;
38603;SDS011;24924;50.054;8.790;2023-07-08T11:25:21;5.03;;;2.33;;
38603;SDS011;24924;50.054;8.790;2023-07-08T11:27:51;5.38;;;2.30;;
38603;SDS011;24924;50.054;8.790;2023-07-08T11:30:22;5.50;;;2.10;;
38603;SDS011;24924;50.054;8.790;2023-07-08T11:33:24;5.05;;;2.30;;
38603;SDS011;24924;50.054;8.790;2023-07-08T11:35:46;4.10;;;2.13;;
38603;SDS011;24924;50.054;8.790;2023-07-08T11:38:19;4.88;;;2.05;;
38603;SDS011;24924;50.054;8.790;2023-07-08T11:41:04;4.88;;;1.83;;
38603;SDS011;24924;50.054;8.790;2023-07-08T11:43:40;5.07;;;2.50;;
38603;SDS011;24924;50.054;8.790;2023-07-08T11:46:20;8.60;;;2.10;;
38603;SDS011;24924;50.054;8.790;2023-07-08T11:48:48;4.33;;;1.83;;
38603;SDS011;24924;50.054;8.790;2023-07-08T11:51:20;5.45;;;2.15;;
38603;SDS011;24924;50.054;8.790;2023-07-08T11:53:50;5.30;;;1.95;;
38603;SDS011;24924;50.054;8.790;2023-07-08T11:56:21;4.25;;;1.63;;
38603;SDS011;24924;50.054;8.790;2023-07-08T12:04:27;4.55;;;2.03;;
38603;SDS011;24924;50.054;8.790;2023-07-08T12:07:10;4.20;;;2.10;;
38603;SDS011;24924;50.054;8.790;2023-07-08T12:09:38;4.70;;;2.13;;
38603;SDS011;24924;50.054;8.790;2023-07-08T12:12:12;6.00;;;2.50;;
38603;SDS011;24924;50.054;8.790;2023-07-08T12:14:43;6.20;;;2.00;;
38603;SDS011;24924;50.054;8.790;2023-07-08T12:17:10;4.47;;;2.03;;
38603;SDS011;24924;50.054;8.790;2023-07-08T12:19:38;5.25;;;2.17;;
38603;SDS011;24924;50.054;8.790;2023-07-08T12:22:10;5.85;;;2.03;;
38603;SDS011;24924;50.054;8.790;2023-07-08T12:24:37;4.60;;;2.08;;
38603;SDS011;24924;50.054;8.790;2023-07-08T12:27:04;5.90;;;2.50;;
38603;SDS011;24924;50.054;8.790;2023-07-08T12:29:31;5.82;;;2.13;;
38603;SDS011;24924;50.054;8.790;2023-07-08T12:31:57;4.68;;;2.17;;
38603;SDS011;24924;50.054;8.790;2023-07-08T12:34:24;5.57;;;2.03;;
38603;SDS011;24924;50.054;8.790;2023-07-08T12:36:53;5.57;;;2.38;;
38603;SDS011;24924;50.054;8.790;2023-07-08T12:39:21;6.43;;;2.13;;
38603;SDS011;24924;50.054;8.790;2023-07-08T12:41:47;5.28;;;2.20;;
38603;SDS011;24924;50.054;8.790;2023-07-08T12:44:20;4.65;;;1.73;;
38603;SDS011;24924;50.054;8.790;2023-07-08T12:46:47;4.65;;;1.98;;
38603;SDS011;24924;50.054;8.790;2023-07-08T12:49:14;4.63;;;2.00;;
38603;SDS011;24924;50.054;8.790;2023-07-08T12:51:41;5.10;;;2.10;;
38603;SDS011;24924;50.054;8.790;2023-07-08T12:54:08;4.68;;;2.00;;
38603;SDS011;24924;50.054;8.790;2023-07-08T12:56:37;4.38;;;1.60;;
38603;SDS011;24924;50.054;8.790;2023-07-08T12:59:04;6.00;;;1.90;;
38603;SDS011;24924;50.054;8.790;2023-07-08T13:01:32;6.40;;;2.03;;
38603;SDS011;24924;50.054;8.790;2023-07-08T13:04:01;4.63;;;1.97;;
38603;SDS011;24924;50.054;8.790;2023-07-08T13:06:29;4.75;;;1.88;;
38603;SDS011;24924;50.054;8.790;2023-07-08T13:09:42;6.18;;;2.22;;
38603;SDS011;24924;50.054;8.790;2023-07-08T13:11:46;5.30;;;2.10;;
38603;SDS011;24924;50.054;8.790;2023-07-08T13:14:13;6.50;;;2.30;;
38603;SDS011;24924;50.054;8.790;2023-07-08T13:16:39;4.73;;;2.20;;
38603;SDS011;24924;50.054;8.790;2023-07-08T13:19:06;5.05;;;2.28;;
38603;SDS011;24924;50.054;8.790;2023-07-08T13:21:36;5.13;;;1.95;;
38603;SDS011;24924;50.054;8.790;2023-07-08T13:24:06;4.55;;;1.73;;
38603;SDS011;24924;50.054;8.790;2023-07-08T13:26:39;4.35;;;1.85;;
38603;SDS011;24924;50.054;8.790;2023-07-08T13:29:11;4.00;;;1.67;;
38603;SDS011;24924;50.054;8.790;2023-07-08T13:31:40;5.28;;;2.30;;
38603;SDS011;24924;50.054;8.790;2023-07-08T13:34:08;7.95;;;2.13;;
38603;SDS011;24924;50.054;8.790;2023-07-08T13:36:36;5.53;;;2.60;;
38603;SDS011;24924;50.054;8.790;2023-07-08T13:39:04;5.00;;;2.20;;
38603;SDS011;24924;50.054;8.790;2023-07-08T13:41:33;4.53;;;1.70;;
38603;SDS011;24924;50.054;8.790;2023-07-08T13:44:06;6.25;;;2.03;;
38603;SDS011;24924;50.054;8.790;2023-07-08T13:46:35;4.85;;;1.73;;
38603;SDS011;24924;50.054;8.790;2023-07-08T13:49:03;8.48;;;2.55;;
38603;SDS011;24924;50.054;8.790;2023-07-08T13:51:46;4.75;;;1.95;;
38603;SDS011;24924;50.054;8.790;2023-07-08T13:54:14;5.30;;;2.20;;
38603;SDS011;24924;50.054;8.790;2023-07-08T13:56:41;5.65;;;2.33;;
38603;SDS011;24924;50.054;8.790;2023-07-08T13:59:08;4.80;;;2.00;;
38603;SDS011;24924;50.054;8.790;2023-07-08T14:01:37;6.57;;;2.00;;
38603;SDS011;24924;50.054;8.790;2023-07-08T14:04:03;5.50;;;1.95;;
38603;SDS011;24924;50.054;8.790;2023-07-08T14:06:34;5.37;;;2.00;;
38603;SDS011;24924;50.054;8.790;2023-07-08T14:09:13;4.28;;;2.00;;
38603;SDS011;24924;50.054;8.790;2023-07-08T14:11:42;5.30;;;2.13;;
38603;SDS011;24924;50.054;8.790;2023-07-08T14:14:08;5.15;;;1.95;;
38603;SDS011;24924;50.054;8.790;2023-07-08T14:16:36;5.50;;;1.77;;
38603;SDS011;24924;50.054;8.790;2023-07-08T14:19:03;7.07;;;1.80;;
38603;SDS011;24924;50.054;8.790;2023-07-08T14:21:31;5.60;;;1.85;;
38603;SDS011;24924;50.054;8.790;2023-07-08T14:23:58;4.55;;;2.08;;
38603;SDS011;24924;50.054;8.790;2023-07-08T14:26:24;4.80;;;1.90;;
38603;SDS011;24924;50.054;8.790;2023-07-08T14:28:50;4.63;;;1.90;;
38603;SDS011;24924;50.054;8.790;2023-07-08T14:31:19;4.37;;;2.13;;
38603;SDS011;24924;50.054;8.790;2023-07-08T14:33:47;4.90;;;1.98;;
38603;SDS011;24924;50.054;8.790;2023-07-08T14:36:13;5.20;;;1.98;;
38603;SDS011;24924;50.054;8.790;2023-07-08T14:38:40;4.95;;;2.13;;
38603;SDS011;24924;50.054;8.790;2023-07-08T14:41:06;5.15;;;2.08;;
38603;SDS011;24924;50.054;8.790;2023-07-08T14:43:33;5.20;;;2.20;;
38603;SDS011;24924;50.054;8.790;2023-07-08T14:46:03;5.03;;;1.95;;
38603;SDS011;24924;50.054;8.790;2023-07-08T14:48:31;5.53;;;2.05;;
38603;SDS011;24924;50.054;8.790;2023-07-08T14:50:58;4.85;;;2.10;;
38603;SDS011;24924;50.054;8.790;2023-07-08T14:53:24;6.47;;;2.30;;
38603;SDS011;24924;50.054;8.790;2023-07-08T14:55:50;7.50;;;2.17;;
38603;SDS011;24924;50.054;8.790;2023-07-08T14:58:20;5.35;;;2.22;;
38603;SDS011;24924;50.054;8.790;2023-07-08T15:00:58;4.63;;;1.80;;
38603;SDS011;24924;50.054;8.790;2023-07-08T15:03:25;5.05;;;1.80;;
38603;SDS011;24924;50.054;8.790;2023-07-08T15:05:51;5.03;;;2.00;;
38603;SDS011;24924;50.054;8.790;2023-07-08T15:08:18;5.10;;;1.98;;
38603;SDS011;24924;50.054;8.790;2023-07-08T15:10:49;4.70;;;2.20;;
38603;SDS011;24924;50.054;8.790;2023-07-08T15:13:16;6.40;;;1.75;;
38603;SDS011;24924;50.054;8.790;2023-07-08T15:15:43;5.60;;;1.95;;
38603;SDS011;24924;50.054;8.790;2023-07-08T15:18:10;5.23;;;2.00;;
38603;SDS011;24924;50.054;8.790;2023-07-08T15:20:37;5.97;;;1.90;;
38603;SDS011;24924;50.054;8.790;2023-07-08T15:23:04;4.88;;;1.95;;
38603;SDS011;24924;50.054;8.790;2023-07-08T15:25:30;4.93;;;2.22;;
38603;SDS011;24924;50.054;8.790;2023-07-08T15:27:58;4.85;;;1.70;;
38603;SDS011;24924;50.054;8.790;2023-07-08T15:30:25;4.47;;;1.90;;
38603;SDS011;24924;50.054;8.790;2023-07-08T15:32:52;4.60;;;1.98;;
38603;SDS011;24924;50.054;8.790;2023-07-08T15:35:25;4.47;;;1.60;;
38603;SDS011;24924;50.054;8.790;2023-07-08T15:37:57;5.57;;;1.83;;
38603;SDS011;24924;50.054;8.790;2023-07-08T15:40:25;4.68;;;1.83;;
38603;SDS011;24924;50.054;8.790;2023-07-08T15:42:53;4.87;;;1.87;;
38603;SDS011;24924;50.054;8.790;2023-07-08T15:45:25;4.72;;;1.55;;